ALTO2: Altus Lake, OK

Data processed at Sat Dec 09 2017 23:48


All information presented herein is the property of the government of the United States of America and may be revised or deleted at any time without prior notice.
Dissemination of this information without the expressed written consent of the Public Affairs Office, Tulsa District U.S. Army Corps of Engineers is strictly prohibited.
These data are gathered electronically and, as presented, have not undergone any form of quality control. These data are not guaranteed to be valid or correct.
Go to home page.
Go to station list.

Upstream stations:

Downstream station:
Previous Day
Next Day
Current Day
    
SHEF ID:       ALTO2     Altus Lake
STATION TYPE:  RESERVOIR
Normal Pool:  Bottom =  1517.50, Top =  1559.00

               PRECIP  RIV-FLOW ELEVATION   STORAGE    INFLOW   RELEASE   VOLTAGE  BAT-LOAD
                   in       cfs        ft     ac-ft       cfs       cfs      volt      volt
              Ccp-Rev   Ccp-Rev   Ccp-Rev   Ccp-Rev  Regi-Rev  Regi-Rev   Ccp-Rev   Ccp-Rev
(US/Central)
12/07 00:00      0.00      ----   1550.22     82793        19         0     12.41      ----
12/07 01:00      0.00      ----   1550.22     82793        31         0     12.41      ----
12/07 02:00      0.00      ----   1550.26     82978        33         0     12.33      ----
12/07 03:00      0.00      ----   1550.23     82839        36         0     12.33      ----
12/07 04:00      0.00      ----   1550.23     82839        38         0     12.33      ----
12/07 05:00      0.00      ----   1550.26     82978        20         0     12.33      ----
12/07 06:00      0.00      ----   1550.24     82886         9         0     12.25      ----
12/07 07:00      0.00      ----   1550.24     82886         6         0     12.25      ----
12/07 08:00      0.00      ----   1550.23     82839         3         0     12.25      ----
12/07 09:00      0.00      ----   1550.24     82886         1         0     12.25      ----
12/07 10:00      0.00      ----   1550.23     82839         1         0     12.25      ----
12/07 11:00      0.00      ----   1550.25     82932         1         0     13.29      ----
12/07 12:00      0.00      ----   1550.24     82886         1         0     13.21      ----
12/07 13:00      0.00      ----   1550.22     82793         1         0     13.68      ----
12/07 14:00      0.00      ----   1550.23     82839         1         0     14.00      ----
12/07 15:00      0.00      ----   1550.24     82886         1         0     13.76      ----
12/07 16:00      0.00      ----   1550.24     82886         0         0     13.05      ----
12/07 17:00      0.00      ----   1550.22     82793         0         0     12.73      ----
12/07 18:00      0.00      ----   1550.22     82793         0         0     12.57      ----
12/07 19:00      0.00      ----   1550.22     82793         0         0     12.49      ----
12/07 20:00      0.00      ----   1550.22     82793         0         0     12.41      ----
12/07 21:00      0.00      ----   1550.22     82793         0         0     12.41      ----
12/07 22:00      0.00      ----   1550.22     82793         0         0     12.41      ----
12/07 23:00      0.00      ----   1550.22     82793         0         0     12.41      ----